createdAt,value
2018-08-31T00:00:25.827Z,1019.20
2018-08-31T00:01:25.814Z,1019.20
2018-08-31T00:02:25.792Z,1019.22
2018-08-31T00:03:25.791Z,1019.23
2018-08-31T00:04:25.775Z,1019.21
2018-08-31T00:05:25.745Z,1019.22
2018-08-31T00:06:25.731Z,1019.18
2018-08-31T00:07:25.709Z,1019.18
2018-08-31T00:08:25.710Z,1019.19
2018-08-31T00:09:25.683Z,1019.17
2018-08-31T00:10:25.690Z,1019.15
2018-08-31T00:11:25.643Z,1019.15
2018-08-31T00:12:25.628Z,1019.16
2018-08-31T00:13:25.619Z,1019.15
2018-08-31T00:14:25.617Z,1019.17
2018-08-31T00:15:25.585Z,1019.14
2018-08-31T00:16:25.583Z,1019.20
2018-08-31T00:17:25.569Z,1019.20
2018-08-31T00:18:25.536Z,1019.18
2018-08-31T00:19:25.525Z,1019.18
2018-08-31T00:20:25.522Z,1019.16
2018-08-31T00:21:25.507Z,1019.19
2018-08-31T00:22:25.470Z,1019.18
2018-08-31T00:23:25.457Z,1019.18
2018-08-31T00:24:25.455Z,1019.13
2018-08-31T00:25:25.445Z,1019.15
2018-08-31T00:26:25.407Z,1019.16
2018-08-31T00:27:25.406Z,1019.13
2018-08-31T00:28:25.379Z,1019.14
2018-08-31T00:29:25.362Z,1019.19
2018-08-31T00:30:25.344Z,1019.18
2018-08-31T00:31:25.325Z,1019.18
2018-08-31T00:32:25.333Z,1019.21
2018-08-31T00:33:25.297Z,1019.22
2018-08-31T00:34:25.280Z,1019.22
2018-08-31T00:35:25.263Z,1019.20
2018-08-31T00:36:25.245Z,1019.25
2018-08-31T00:37:25.259Z,1019.22
2018-08-31T00:38:25.214Z,1019.21
2018-08-31T00:39:25.198Z,1019.24
2018-08-31T00:40:25.179Z,1019.21
2018-08-31T00:41:25.160Z,1019.19
2018-08-31T00:42:25.150Z,1019.18
2018-08-31T00:43:25.150Z,1019.19
2018-08-31T00:44:25.113Z,1019.19
2018-08-31T00:45:25.100Z,1019.21
2018-08-31T00:46:25.084Z,1019.21
2018-08-31T00:47:25.065Z,1019.22
2018-08-31T00:48:25.068Z,1019.21
2018-08-31T00:49:25.066Z,1019.16
2018-08-31T00:50:25.018Z,1019.17
2018-08-31T00:51:25.000Z,1019.18
2018-08-31T00:52:24.994Z,1019.19
2018-08-31T00:53:24.970Z,1019.16
2018-08-31T00:54:24.971Z,1019.18
2018-08-31T00:55:24.937Z,1019.16
2018-08-31T00:56:24.919Z,1019.15
2018-08-31T00:57:24.905Z,1019.15
2018-08-31T00:58:24.907Z,1019.15
2018-08-31T00:59:24.875Z,1019.14
2018-08-31T01:00:24.872Z,1019.13
2018-08-31T01:01:24.839Z,1019.12
2018-08-31T01:02:24.837Z,1019.09
2018-08-31T01:03:24.810Z,1019.10
2018-08-31T01:04:24.789Z,1019.08
2018-08-31T01:05:24.792Z,1019.08
2018-08-31T01:06:24.759Z,1019.06
2018-08-31T01:07:24.748Z,1019.08
2018-08-31T01:08:24.743Z,1019.10
2018-08-31T01:09:24.711Z,1019.09
2018-08-31T01:10:24.709Z,1019.08
2018-08-31T01:11:24.673Z,1019.06
2018-08-31T01:12:24.663Z,1019.08
2018-08-31T01:13:24.651Z,1019.06
2018-08-31T01:14:24.647Z,1019.02
2018-08-31T01:15:24.615Z,1018.99
2018-08-31T01:16:24.609Z,1019.02
2018-08-31T01:17:24.586Z,1018.98
2018-08-31T01:18:24.560Z,1019.01
2018-08-31T01:19:24.545Z,1019.02
2018-08-31T01:20:24.541Z,1019.00
2018-08-31T01:21:24.531Z,1018.99
2018-08-31T01:22:24.500Z,1019.02
2018-08-31T01:23:24.483Z,1019.04
2018-08-31T01:24:24.462Z,1019.05
2018-08-31T01:25:24.446Z,1019.07
2018-08-31T01:26:24.448Z,1019.06
2018-08-31T01:27:24.420Z,1019.04
2018-08-31T01:28:24.422Z,1019.04
2018-08-31T01:29:24.387Z,1019.07
2018-08-31T01:30:24.366Z,1019.06
2018-08-31T01:31:24.363Z,1019.07
2018-08-31T01:32:24.338Z,1019.06
2018-08-31T01:33:24.323Z,1019.05
2018-08-31T01:34:24.314Z,1019.02
2018-08-31T01:35:24.288Z,1019.04
2018-08-31T01:36:24.272Z,1019.05
2018-08-31T01:37:24.268Z,1019.06
2018-08-31T01:38:24.252Z,1019.09
2018-08-31T01:39:24.228Z,1019.05
2018-08-31T01:40:24.202Z,1019.05
2018-08-31T01:41:24.194Z,1019.07
2018-08-31T01:42:24.167Z,1019.10
2018-08-31T01:43:24.177Z,1019.06
2018-08-31T01:44:24.140Z,1019.05
2018-08-31T01:45:24.129Z,1019.04
2018-08-31T01:46:24.110Z,1019.07
2018-08-31T01:47:24.094Z,1019.06
2018-08-31T01:48:24.087Z,1019.08
2018-08-31T01:49:24.075Z,1019.05
2018-08-31T01:50:24.041Z,1019.09
2018-08-31T01:51:24.046Z,1019.03
2018-08-31T01:52:24.008Z,1019.04
2018-08-31T01:53:23.998Z,1019.07
2018-08-31T01:54:23.979Z,1019.09
2018-08-31T01:55:23.960Z,1019.09
2018-08-31T01:56:23.961Z,1019.14
2018-08-31T01:57:23.934Z,1019.10
2018-08-31T01:58:23.962Z,1019.12
2018-08-31T01:59:23.928Z,1019.13
2018-08-31T02:00:23.879Z,1019.11
2018-08-31T02:01:23.865Z,1019.12
2018-08-31T02:02:23.849Z,1019.12
2018-08-31T02:03:23.830Z,1019.10
2018-08-31T02:04:23.816Z,1019.11
2018-08-31T02:05:23.814Z,1019.09
2018-08-31T02:06:23.786Z,1019.06
2018-08-31T02:07:23.768Z,1019.06
2018-08-31T02:08:23.751Z,1019.08
2018-08-31T02:09:23.749Z,1019.10
2018-08-31T02:10:23.721Z,1019.11
2018-08-31T02:11:23.705Z,1019.08
2018-08-31T02:12:23.683Z,1019.07
2018-08-31T02:13:23.669Z,1019.07
2018-08-31T02:14:23.652Z,1019.04
2018-08-31T02:15:23.669Z,1019.07
2018-08-31T02:16:24.469Z,1019.03
2018-08-31T02:17:23.616Z,1019.02
2018-08-31T02:18:23.595Z,1019.05
2018-08-31T02:19:23.565Z,1019.05
2018-08-31T02:20:23.566Z,1019.03
2018-08-31T02:21:23.555Z,1019.02
2018-08-31T02:22:23.526Z,1019.05
2018-08-31T02:23:23.512Z,1019.02
2018-08-31T02:24:23.490Z,1019.04
2018-08-31T02:25:23.474Z,1019.01
2018-08-31T02:26:23.472Z,1018.99
2018-08-31T02:27:23.442Z,1018.96
2018-08-31T02:28:23.420Z,1018.95
2018-08-31T02:29:23.411Z,1018.97
2018-08-31T02:30:23.395Z,1018.92
2018-08-31T02:31:23.391Z,1018.93
2018-08-31T02:32:23.362Z,1018.95
2018-08-31T02:33:23.341Z,1018.96
2018-08-31T02:34:23.326Z,1018.95
2018-08-31T02:35:23.329Z,1018.97
2018-08-31T02:36:23.372Z,1018.97
2018-08-31T02:37:23.306Z,1018.95
2018-08-31T02:38:23.258Z,1018.94
2018-08-31T02:39:23.312Z,1018.97
2018-08-31T02:40:23.231Z,1018.97
2018-08-31T02:41:23.213Z,1018.99
2018-08-31T02:42:23.213Z,1019.02
2018-08-31T02:43:23.197Z,1018.96
2018-08-31T02:44:23.162Z,1019.00
2018-08-31T02:45:23.175Z,1019.02
2018-08-31T02:46:23.131Z,1019.00
2018-08-31T02:47:23.111Z,1019.01
2018-08-31T02:48:23.103Z,1018.95
2018-08-31T02:49:23.089Z,1018.96
2018-08-31T02:50:23.066Z,1019.00
2018-08-31T02:51:23.067Z,1018.98
2018-08-31T02:52:23.032Z,1019.00
2018-08-31T02:53:23.012Z,1018.99
2018-08-31T02:54:23.012Z,1019.01
2018-08-31T02:55:22.983Z,1019.03
2018-08-31T02:56:22.967Z,1019.00
2018-08-31T02:57:22.957Z,1019.01
2018-08-31T02:58:22.947Z,1018.99
2018-08-31T02:59:22.944Z,1018.94
2018-08-31T03:00:22.900Z,1018.95
2018-08-31T03:01:22.886Z,1018.95
2018-08-31T03:02:22.866Z,1018.97
2018-08-31T03:03:22.843Z,1018.97
2018-08-31T03:04:22.834Z,1018.93
2018-08-31T03:05:22.837Z,1018.98
2018-08-31T03:06:22.802Z,1018.98
2018-08-31T03:07:22.778Z,1018.99
2018-08-31T03:08:22.785Z,1018.98
2018-08-31T03:09:22.786Z,1018.97
2018-08-31T03:10:22.737Z,1018.96
2018-08-31T03:11:22.747Z,1018.96
2018-08-31T03:12:22.705Z,1018.98
2018-08-31T03:13:22.696Z,1018.95
2018-08-31T03:14:22.673Z,1018.96
2018-08-31T03:15:22.687Z,1018.94
2018-08-31T03:16:22.638Z,1018.94
2018-08-31T03:17:22.618Z,1018.94
2018-08-31T03:18:22.612Z,1018.93
2018-08-31T03:19:22.590Z,1018.95
2018-08-31T03:20:22.571Z,1018.94
2018-08-31T03:21:22.635Z,1018.88
2018-08-31T03:22:22.537Z,1018.90
2018-08-31T03:23:22.524Z,1018.91
2018-08-31T03:24:22.500Z,1018.90
2018-08-31T03:25:22.488Z,1018.91
2018-08-31T03:26:22.489Z,1018.93
2018-08-31T03:27:22.467Z,1018.93
2018-08-31T03:28:22.452Z,1018.90
2018-08-31T03:29:22.421Z,1018.96
2018-08-31T03:30:22.408Z,1018.92
2018-08-31T03:31:22.390Z,1018.95
2018-08-31T03:32:22.395Z,1018.90
2018-08-31T03:33:22.359Z,1018.93
2018-08-31T03:34:22.343Z,1018.92
2018-08-31T03:35:22.342Z,1018.91
2018-08-31T03:36:22.307Z,1018.90
2018-08-31T03:37:22.292Z,1018.92
2018-08-31T03:38:22.281Z,1018.91
2018-08-31T03:39:22.274Z,1018.88
2018-08-31T03:40:22.256Z,1018.91
2018-08-31T03:41:22.222Z,1018.91
2018-08-31T03:42:22.208Z,1018.89
2018-08-31T03:43:22.195Z,1018.90
2018-08-31T03:44:22.194Z,1018.91
2018-08-31T03:45:22.168Z,1018.90
2018-08-31T03:46:22.160Z,1018.87
2018-08-31T03:47:22.122Z,1018.91
2018-08-31T03:48:22.109Z,1018.90
2018-08-31T03:49:22.096Z,1018.89
2018-08-31T03:50:22.074Z,1018.87
2018-08-31T03:51:22.093Z,1018.88
2018-08-31T03:52:22.044Z,1018.90
2018-08-31T03:53:22.032Z,1018.89
2018-08-31T03:54:22.032Z,1018.89
2018-08-31T03:55:22.010Z,1018.88
2018-08-31T03:56:21.994Z,1018.90
2018-08-31T03:57:21.958Z,1018.87
2018-08-31T03:58:21.946Z,1018.90
2018-08-31T03:59:21.926Z,1018.88
2018-08-31T04:00:21.915Z,1018.88
2018-08-31T04:01:21.915Z,1018.90
2018-08-31T04:02:21.875Z,1018.92
2018-08-31T04:03:21.871Z,1018.93
2018-08-31T04:04:21.850Z,1018.92
2018-08-31T04:05:21.830Z,1018.90
2018-08-31T04:06:21.825Z,1018.93
2018-08-31T04:07:21.800Z,1018.94
2018-08-31T04:08:21.905Z,1018.92
2018-08-31T04:09:21.769Z,1018.94
2018-08-31T04:10:21.759Z,1018.94
2018-08-31T04:11:21.760Z,1018.93
2018-08-31T04:12:22.971Z,1018.98
2018-08-31T04:13:21.696Z,1018.93
2018-08-31T04:14:21.742Z,1018.92
2018-08-31T04:15:21.719Z,1018.93
2018-08-31T04:16:21.650Z,1018.91
2018-08-31T04:17:21.647Z,1018.91
2018-08-31T04:18:21.625Z,1018.91
2018-08-31T04:19:21.594Z,1018.93
2018-08-31T04:20:21.587Z,1018.95
2018-08-31T04:21:21.568Z,1018.93
2018-08-31T04:22:21.562Z,1018.93
2018-08-31T04:23:21.529Z,1018.98
2018-08-31T04:24:21.518Z,1018.94
2018-08-31T04:25:21.498Z,1018.92
2018-08-31T04:26:21.482Z,1018.96
2018-08-31T04:27:21.501Z,1018.97
2018-08-31T04:28:21.457Z,1018.97
2018-08-31T04:29:21.437Z,1019.00
2018-08-31T04:30:21.414Z,1019.01
2018-08-31T04:31:21.402Z,1019.04
2018-08-31T04:32:21.381Z,1019.09
2018-08-31T04:33:21.387Z,1019.09
2018-08-31T04:34:21.354Z,1019.06
2018-08-31T04:35:21.332Z,1019.11
2018-08-31T04:36:21.323Z,1019.07
2018-08-31T04:37:21.297Z,1019.11
2018-08-31T04:38:21.315Z,1019.07
2018-08-31T04:39:21.272Z,1019.09
2018-08-31T04:40:21.250Z,1019.11
2018-08-31T04:41:21.238Z,1019.11
2018-08-31T04:42:21.229Z,1019.14
2018-08-31T04:43:21.212Z,1019.16
2018-08-31T04:44:21.198Z,1019.14
2018-08-31T04:45:21.168Z,1019.13
2018-08-31T04:46:21.156Z,1019.16
2018-08-31T04:47:21.137Z,1019.14
2018-08-31T04:48:21.121Z,1019.15
2018-08-31T04:49:21.121Z,1019.12
2018-08-31T04:50:21.116Z,1019.12
2018-08-31T04:51:21.071Z,1019.15
2018-08-31T04:52:21.054Z,1019.13
2018-08-31T04:53:21.034Z,1019.13
2018-08-31T04:54:21.038Z,1019.15
2018-08-31T04:55:21.005Z,1019.16
2018-08-31T04:56:20.991Z,1019.14
2018-08-31T04:57:20.966Z,1019.13
2018-08-31T04:58:20.952Z,1019.14
2018-08-31T04:59:41.952Z,1019.16
2018-08-31T05:00:20.918Z,1019.15
2018-08-31T05:01:20.910Z,1019.11
2018-08-31T05:02:20.886Z,1019.17
2018-08-31T05:03:20.876Z,1019.13
2018-08-31T05:04:20.853Z,1019.17
2018-08-31T05:05:20.849Z,1019.13
2018-08-31T05:06:20.948Z,1019.13
2018-08-31T05:07:20.805Z,1019.13
2018-08-31T05:08:20.794Z,1019.13
2018-08-31T05:09:20.771Z,1019.13
2018-08-31T05:10:41.823Z,1019.13
2018-08-31T05:11:20.737Z,1019.16
2018-08-31T05:12:20.721Z,1019.18
2018-08-31T05:13:20.705Z,1019.15
2018-08-31T05:14:20.689Z,1019.18
2018-08-31T05:15:20.687Z,1019.16
2018-08-31T05:16:20.661Z,1019.17
2018-08-31T05:17:20.639Z,1019.18
2018-08-31T05:18:20.618Z,1019.21
2018-08-31T05:19:20.602Z,1019.16
2018-08-31T05:20:20.602Z,1019.16
2018-08-31T05:21:41.581Z,1019.16
2018-08-31T05:22:20.566Z,1019.17
2018-08-31T05:23:20.535Z,1019.15
2018-08-31T05:24:20.521Z,1019.20
2018-08-31T05:25:20.502Z,1019.18
2018-08-31T05:26:20.499Z,1019.24
2018-08-31T05:27:20.489Z,1019.21
2018-08-31T05:28:20.485Z,1019.24
2018-08-31T05:29:20.438Z,1019.19
2018-08-31T05:30:20.422Z,1019.24
2018-08-31T05:31:20.426Z,1019.19
2018-08-31T05:32:20.383Z,1019.20
2018-08-31T05:33:20.367Z,1019.21
2018-08-31T05:34:20.349Z,1019.18
2018-08-31T05:35:20.336Z,1019.16
2018-08-31T05:36:20.324Z,1019.19
2018-08-31T05:37:20.324Z,1019.20
2018-08-31T05:38:20.280Z,1019.24
2018-08-31T05:39:20.269Z,1019.24
2018-08-31T05:40:20.250Z,1019.24
2018-08-31T05:41:20.238Z,1019.26
2018-08-31T05:42:20.238Z,1019.20
2018-08-31T05:43:20.208Z,1019.27
2018-08-31T05:44:20.192Z,1019.22
2018-08-31T05:45:20.171Z,1019.25
2018-08-31T05:46:20.152Z,1019.24
2018-08-31T05:47:20.147Z,1019.25
2018-08-31T05:48:20.122Z,1019.28
2018-08-31T05:49:20.105Z,1019.27
2018-08-31T05:50:20.084Z,1019.31
2018-08-31T05:51:20.089Z,1019.32
2018-08-31T05:52:20.079Z,1019.36
2018-08-31T05:53:20.058Z,1019.35
2018-08-31T05:54:20.025Z,1019.34
2018-08-31T05:55:20.007Z,1019.34
2018-08-31T05:56:20.004Z,1019.38
2018-08-31T05:57:19.998Z,1019.39
2018-08-31T05:58:19.954Z,1019.38
2018-08-31T05:59:19.940Z,1019.43
2018-08-31T06:00:19.921Z,1019.46
2018-08-31T06:01:19.906Z,1019.45
2018-08-31T06:02:20.022Z,1019.48
2018-08-31T06:03:19.872Z,1019.47
2018-08-31T06:04:19.853Z,1019.48
2018-08-31T06:05:19.877Z,1019.48
2018-08-31T06:06:19.823Z,1019.51
2018-08-31T06:07:19.807Z,1019.51
2018-08-31T06:08:19.796Z,1019.50
2018-08-31T06:09:19.797Z,1019.52
2018-08-31T06:10:19.781Z,1019.53
2018-08-31T06:11:19.747Z,1019.55
2018-08-31T06:12:19.735Z,1019.52
2018-08-31T06:13:19.716Z,1019.53
2018-08-31T06:14:19.692Z,1019.56
2018-08-31T06:15:19.705Z,1019.61
2018-08-31T06:16:19.669Z,1019.59
2018-08-31T06:17:20.487Z,1019.60
2018-08-31T06:18:19.635Z,1019.57
2018-08-31T06:19:19.617Z,1019.59
2018-08-31T06:20:19.618Z,1019.56
2018-08-31T06:21:19.599Z,1019.59
2018-08-31T06:22:19.568Z,1019.58
2018-08-31T06:23:19.557Z,1019.56
2018-08-31T06:24:19.541Z,1019.60
2018-08-31T06:25:19.529Z,1019.56
2018-08-31T06:26:19.504Z,1019.56
2018-08-31T06:27:19.492Z,1019.58
2018-08-31T06:28:19.471Z,1019.61
2018-08-31T06:29:19.458Z,1019.60
2018-08-31T06:30:19.456Z,1019.60
2018-08-31T06:31:19.442Z,1019.61
2018-08-31T06:32:19.412Z,1019.62
2018-08-31T06:33:19.395Z,1019.64
2018-08-31T06:34:19.379Z,1019.65
2018-08-31T06:35:19.366Z,1019.64
2018-08-31T06:36:19.366Z,1019.65
2018-08-31T06:37:19.327Z,1019.67
2018-08-31T06:38:19.318Z,1019.65
2018-08-31T06:39:19.301Z,1019.66
2018-08-31T06:40:19.991Z,1019.68
2018-08-31T06:41:19.269Z,1019.65
2018-08-31T06:42:19.269Z,1019.73
2018-08-31T06:43:19.237Z,1019.69
2018-08-31T06:44:19.228Z,1019.72
2018-08-31T06:45:19.206Z,1019.70
2018-08-31T06:46:19.197Z,1019.70
2018-08-31T06:47:20.025Z,1019.72
2018-08-31T06:48:19.163Z,1019.73
2018-08-31T06:49:19.145Z,1019.67
2018-08-31T06:50:19.130Z,1019.68
2018-08-31T06:51:19.137Z,1019.68
2018-08-31T06:52:19.120Z,1019.72
2018-08-31T06:53:19.080Z,1019.71
2018-08-31T06:54:19.070Z,1019.66
2018-08-31T06:55:19.052Z,1019.65
2018-08-31T06:56:19.032Z,1019.69
2018-08-31T06:57:19.023Z,1019.67
2018-08-31T06:58:19.029Z,1019.68
2018-08-31T06:59:18.993Z,1019.64
2018-08-31T07:00:18.974Z,1019.68
2018-08-31T07:01:18.964Z,1019.67
2018-08-31T07:02:18.989Z,1019.70
2018-08-31T07:03:18.940Z,1019.71
2018-08-31T07:04:18.928Z,1019.72
2018-08-31T07:05:18.895Z,1019.70
2018-08-31T07:06:18.883Z,1019.71
2018-08-31T07:07:18.885Z,1019.70
2018-08-31T07:08:18.861Z,1019.73
2018-08-31T07:09:18.842Z,1019.73
2018-08-31T07:10:18.820Z,1019.73
2018-08-31T07:11:18.810Z,1019.72
2018-08-31T07:12:18.846Z,1019.77
2018-08-31T07:13:18.781Z,1019.76
2018-08-31T07:14:18.761Z,1019.75
2018-08-31T07:15:18.767Z,1019.79
2018-08-31T07:16:18.730Z,1019.76
2018-08-31T07:17:18.738Z,1019.76
2018-08-31T07:18:18.706Z,1019.75
2018-08-31T07:19:18.755Z,1019.74
2018-08-31T07:20:18.688Z,1019.77
2018-08-31T07:21:18.655Z,1019.75
2018-08-31T07:22:18.647Z,1019.80
2018-08-31T07:23:18.656Z,1019.80
2018-08-31T07:24:18.608Z,1019.78
2018-08-31T07:25:18.597Z,1019.83
2018-08-31T07:26:18.643Z,1019.86
2018-08-31T07:27:18.563Z,1019.84
2018-08-31T07:28:18.565Z,1019.90
2018-08-31T07:29:18.552Z,1019.91
2018-08-31T07:30:18.526Z,1019.91
2018-08-31T07:31:18.507Z,1019.90
2018-08-31T07:32:18.563Z,1019.92
2018-08-31T07:33:18.491Z,1019.93
2018-08-31T07:34:18.474Z,1019.94
2018-08-31T07:35:18.447Z,1019.95
2018-08-31T07:36:18.529Z,1019.91
2018-08-31T07:37:18.433Z,1019.95
2018-08-31T07:38:18.406Z,1019.94
2018-08-31T07:39:18.404Z,1019.92
2018-08-31T07:40:18.371Z,1019.90
2018-08-31T07:41:18.364Z,1019.92
2018-08-31T07:42:18.369Z,1019.91
2018-08-31T07:43:18.330Z,1019.90
2018-08-31T07:44:18.341Z,1019.93
2018-08-31T07:45:18.297Z,1019.92
2018-08-31T07:46:18.283Z,1019.92
2018-08-31T07:47:18.267Z,1019.93
2018-08-31T07:48:18.255Z,1019.97
2018-08-31T07:49:18.240Z,1019.95
2018-08-31T07:50:18.243Z,1019.98
2018-08-31T07:51:18.213Z,1019.97
2018-08-31T07:52:18.200Z,1019.99
2018-08-31T07:53:18.184Z,1019.98
2018-08-31T07:54:18.163Z,1020.00
2018-08-31T07:55:18.150Z,1020.01
2018-08-31T07:56:18.153Z,1020.05
2018-08-31T07:57:18.152Z,1020.02
2018-08-31T07:58:18.106Z,1020.04
2018-08-31T07:59:18.100Z,1020.05
2018-08-31T08:00:18.085Z,1020.07
2018-08-31T08:01:18.069Z,1020.12
2018-08-31T08:02:18.121Z,1020.14
2018-08-31T08:03:18.055Z,1020.15
2018-08-31T08:04:18.028Z,1020.18
2018-08-31T08:05:18.013Z,1020.14
2018-08-31T08:06:17.997Z,1020.15
2018-08-31T08:07:17.996Z,1020.11
2018-08-31T08:08:17.981Z,1020.18
2018-08-31T08:09:17.952Z,1020.15
2018-08-31T08:10:17.939Z,1020.16
2018-08-31T08:11:17.926Z,1020.16
2018-08-31T08:12:17.912Z,1020.18
2018-08-31T08:13:17.911Z,1020.16
2018-08-31T08:14:17.883Z,1020.20
2018-08-31T08:15:17.870Z,1020.19
2018-08-31T08:16:17.860Z,1020.21
2018-08-31T08:17:17.847Z,1020.21
2018-08-31T08:18:17.847Z,1020.23
2018-08-31T08:19:17.827Z,1020.23
2018-08-31T08:20:17.796Z,1020.20
2018-08-31T08:21:17.789Z,1020.22
2018-08-31T08:22:17.770Z,1020.18
2018-08-31T08:23:17.776Z,1020.19
2018-08-31T08:24:17.761Z,1020.18
2018-08-31T08:25:17.728Z,1020.21
2018-08-31T08:26:17.714Z,1020.18
2018-08-31T08:27:17.698Z,1020.19
2018-08-31T08:28:18.587Z,1020.21
2018-08-31T08:29:39.633Z,1020.20
2018-08-31T08:30:17.666Z,1020.18
2018-08-31T08:31:17.647Z,1020.17
2018-08-31T08:32:17.634Z,1020.20
2018-08-31T08:33:17.623Z,1020.16
2018-08-31T08:34:17.618Z,1020.23
2018-08-31T08:35:17.593Z,1020.18
2018-08-31T08:36:17.574Z,1020.23
2018-08-31T08:37:17.567Z,1020.20
2018-08-31T08:38:17.553Z,1020.21
2018-08-31T08:39:17.555Z,1020.23
2018-08-31T08:40:17.528Z,1020.20
2018-08-31T08:41:17.506Z,1020.20
2018-08-31T08:42:17.522Z,1020.21
2018-08-31T08:43:17.480Z,1020.20
2018-08-31T08:44:17.487Z,1020.20
2018-08-31T08:45:17.460Z,1020.20
2018-08-31T08:46:17.471Z,1020.22
2018-08-31T08:47:17.430Z,1020.17
2018-08-31T08:48:17.488Z,1020.23
2018-08-31T08:49:17.404Z,1020.23
2018-08-31T08:50:17.390Z,1020.21
2018-08-31T08:51:17.387Z,1020.23
2018-08-31T08:52:17.378Z,1020.23
2018-08-31T08:53:17.349Z,1020.22
2018-08-31T08:54:17.337Z,1020.24
2018-08-31T08:55:17.321Z,1020.23
2018-08-31T08:56:17.305Z,1020.23
2018-08-31T08:57:17.292Z,1020.25
2018-08-31T08:58:17.364Z,1020.21
2018-08-31T08:59:17.272Z,1020.20
2018-08-31T09:00:17.263Z,1020.16
2018-08-31T09:01:17.244Z,1020.15
2018-08-31T09:02:17.229Z,1020.18
2018-08-31T09:03:17.234Z,1020.16
2018-08-31T09:04:17.211Z,1020.19
2018-08-31T09:05:17.195Z,1020.17
2018-08-31T09:06:17.179Z,1020.17
2018-08-31T09:07:17.187Z,1020.18
2018-08-31T09:08:17.148Z,1020.17
2018-08-31T09:09:17.141Z,1020.16
2018-08-31T09:10:17.125Z,1020.17
2018-08-31T09:11:17.117Z,1020.19
2018-08-31T09:12:17.152Z,1020.18
2018-08-31T09:13:17.108Z,1020.16
2018-08-31T09:14:17.086Z,1020.17
2018-08-31T09:15:17.070Z,1020.15
2018-08-31T09:16:17.095Z,1020.19
2018-08-31T09:17:17.047Z,1020.18
2018-08-31T09:18:17.083Z,1020.16
2018-08-31T09:19:17.022Z,1020.26
2018-08-31T09:20:17.065Z,1020.22
2018-08-31T09:21:16.994Z,1020.15
2018-08-31T09:22:16.981Z,1020.27
2018-08-31T09:23:16.987Z,1020.29
2018-08-31T09:24:16.953Z,1020.29
2018-08-31T09:25:16.942Z,1020.27
2018-08-31T09:26:16.973Z,1020.33
2018-08-31T09:27:16.920Z,1020.25
2018-08-31T09:28:16.910Z,1020.32
2018-08-31T09:29:16.912Z,1020.34
2018-08-31T09:30:16.886Z,1020.36
2018-08-31T09:31:16.895Z,1020.37
2018-08-31T09:32:16.865Z,1020.44
2018-08-31T09:33:16.870Z,1020.43
2018-08-31T09:34:16.862Z,1020.40
2018-08-31T09:35:16.845Z,1020.41
2018-08-31T09:36:16.823Z,1020.41
2018-08-31T09:37:16.826Z,1020.40
2018-08-31T09:38:16.864Z,1020.45
2018-08-31T09:39:16.793Z,1020.51
2018-08-31T09:40:16.781Z,1020.47
2018-08-31T09:41:16.797Z,1020.20
2018-08-31T09:42:16.763Z,1020.17
2018-08-31T09:43:16.761Z,1020.18
2018-08-31T09:44:16.750Z,1020.39
2018-08-31T09:45:16.746Z,1020.39
2018-08-31T09:46:17.597Z,1020.43
2018-08-31T09:47:16.723Z,1020.42
2018-08-31T09:48:16.717Z,1020.41
2018-08-31T09:49:16.709Z,1020.42
2018-08-31T09:50:16.712Z,1020.15
2018-08-31T09:51:16.693Z,1020.12
2018-08-31T09:52:16.682Z,1020.38
2018-08-31T09:53:16.674Z,1020.34
2018-08-31T09:54:16.662Z,1020.33
2018-08-31T09:55:16.678Z,1020.41
2018-08-31T09:56:16.681Z,1020.41
2018-08-31T09:57:16.658Z,1020.42
2018-08-31T09:58:16.644Z,1020.43
2018-08-31T09:59:16.638Z,1020.44
2018-08-31T10:00:16.628Z,1020.38
2018-08-31T10:01:16.626Z,1020.37
2018-08-31T10:02:16.630Z,1020.33
2018-08-31T10:03:16.604Z,1020.10
2018-08-31T10:04:16.607Z,1020.13
2018-08-31T10:05:16.594Z,1020.32
2018-08-31T10:06:16.592Z,1020.34
2018-08-31T10:07:16.604Z,1020.35
2018-08-31T10:08:16.582Z,1020.33
2018-08-31T10:09:16.578Z,1020.31
2018-08-31T10:10:16.589Z,1020.28
2018-08-31T10:11:16.562Z,1020.31
2018-08-31T10:12:16.575Z,1020.09
2018-08-31T10:13:16.597Z,1020.00
2018-08-31T10:14:16.552Z,1020.08
2018-08-31T10:15:16.547Z,1020.04
2018-08-31T10:16:16.545Z,1020.04
2018-08-31T10:17:16.556Z,1020.07
2018-08-31T10:18:16.532Z,1020.31
2018-08-31T10:19:16.524Z,1020.26
2018-08-31T10:20:16.523Z,1020.25
2018-08-31T10:21:16.521Z,1020.31
2018-08-31T10:22:16.538Z,1020.30
2018-08-31T10:23:16.503Z,1020.24
2018-08-31T10:24:16.501Z,1020.30
2018-08-31T10:25:16.507Z,1020.31
2018-08-31T10:26:16.499Z,1020.29
2018-08-31T10:27:16.539Z,1020.33
2018-08-31T10:28:16.496Z,1020.32
2018-08-31T10:29:16.478Z,1020.36
2018-08-31T10:30:16.514Z,1020.29
2018-08-31T10:31:16.470Z,1020.33
2018-08-31T10:32:16.465Z,1020.29
2018-08-31T10:33:16.489Z,1020.28
2018-08-31T10:34:16.459Z,1020.27
2018-08-31T10:35:16.457Z,1020.35
2018-08-31T10:36:16.455Z,1020.25
2018-08-31T10:37:16.452Z,1020.35
2018-08-31T10:38:16.462Z,1020.28
2018-08-31T10:39:16.467Z,1020.30
2018-08-31T10:40:16.484Z,1019.97
2018-08-31T10:41:16.441Z,1020.05
2018-08-31T10:42:16.441Z,1020.02
2018-08-31T10:43:16.441Z,1019.96
2018-08-31T10:44:16.440Z,1019.97
2018-08-31T10:45:16.440Z,1020.01
2018-08-31T10:46:16.452Z,1019.96
2018-08-31T10:47:16.425Z,1019.92
2018-08-31T10:48:16.425Z,1019.92
2018-08-31T10:49:16.419Z,1019.96
2018-08-31T10:50:16.433Z,1019.97
2018-08-31T10:51:16.415Z,1019.99
2018-08-31T10:52:16.428Z,1019.99
2018-08-31T10:53:16.403Z,1019.96
2018-08-31T10:54:16.410Z,1019.94
2018-08-31T10:55:16.395Z,1019.98
2018-08-31T10:56:16.403Z,1019.97
2018-08-31T10:57:16.381Z,1019.97
2018-08-31T10:58:16.376Z,1019.97
2018-08-31T10:59:16.364Z,1020.14
2018-08-31T11:00:16.362Z,1020.14
2018-08-31T11:01:16.365Z,1019.93
2018-08-31T11:02:16.357Z,1019.97
2018-08-31T11:03:16.343Z,1020.16
2018-08-31T11:04:16.331Z,1020.14
2018-08-31T11:05:16.323Z,1020.20
2018-08-31T11:06:16.321Z,1020.01
2018-08-31T11:07:16.313Z,1020.14
2018-08-31T11:08:16.322Z,1020.20
2018-08-31T11:09:16.297Z,1020.25
2018-08-31T11:10:16.303Z,1020.21
2018-08-31T11:11:16.286Z,1020.23
2018-08-31T11:12:16.298Z,1020.19
2018-08-31T11:13:37.290Z,1020.17
2018-08-31T11:14:16.270Z,1020.19
2018-08-31T11:15:16.334Z,1020.20
2018-08-31T11:16:16.254Z,1020.19
2018-08-31T11:17:16.271Z,1020.24
2018-08-31T11:18:16.265Z,1020.19
2018-08-31T11:19:16.245Z,1020.21
2018-08-31T11:20:16.242Z,1020.28
2018-08-31T11:21:16.262Z,1020.25
2018-08-31T11:22:16.235Z,1020.18
2018-08-31T11:23:16.229Z,1020.17
2018-08-31T11:24:16.244Z,1020.21
2018-08-31T11:25:16.219Z,1020.20
2018-08-31T11:26:16.219Z,1020.22
2018-08-31T11:27:16.219Z,1020.21
2018-08-31T11:28:16.218Z,1020.20
2018-08-31T11:29:16.230Z,1020.15
2018-08-31T11:30:16.203Z,1020.15
2018-08-31T11:31:16.201Z,1020.14
2018-08-31T11:32:16.212Z,1020.10
2018-08-31T11:33:16.204Z,1020.10
2018-08-31T11:34:16.214Z,1020.10
2018-08-31T11:35:16.197Z,1020.08
2018-08-31T11:36:16.217Z,1020.06
2018-08-31T11:37:16.197Z,1020.05
2018-08-31T11:38:16.191Z,1020.04
2018-08-31T11:39:16.189Z,1019.85
2018-08-31T11:40:16.201Z,1019.84
2018-08-31T11:41:16.183Z,1020.01
2018-08-31T11:42:16.186Z,1019.96
2018-08-31T11:43:16.240Z,1019.86
2018-08-31T11:44:16.171Z,1019.94
2018-08-31T11:45:16.194Z,1019.91
2018-08-31T11:46:16.168Z,1019.90
2018-08-31T11:47:16.167Z,1019.96
2018-08-31T11:48:16.165Z,1019.95
2018-08-31T11:49:16.162Z,1019.84
2018-08-31T11:50:16.172Z,1019.93
2018-08-31T11:51:16.154Z,1019.85
2018-08-31T11:52:16.149Z,1019.86
2018-08-31T11:53:16.152Z,1019.91
2018-08-31T11:54:16.138Z,1019.91
2018-08-31T11:55:16.156Z,1019.89
2018-08-31T11:56:16.137Z,1019.89
2018-08-31T11:57:16.129Z,1019.90
2018-08-31T11:58:16.117Z,1019.89
2018-08-31T11:59:16.123Z,1019.90
2018-08-31T12:00:16.139Z,1019.90
2018-08-31T12:01:16.137Z,1019.93
2018-08-31T12:02:16.103Z,1019.94
2018-08-31T12:03:16.106Z,1019.97
2018-08-31T12:04:16.097Z,1019.93
2018-08-31T12:05:16.093Z,1019.87